sensor_id;sensor_type;location;lat;lon;timestamp;temperature;humidity
82039;DHT22;71610;42.628;23.378;2024-02-23T00:00:35;21.80;31.20
82039;DHT22;71610;42.628;23.378;2024-02-23T00:03:00;21.80;31.20
82039;DHT22;71610;42.628;23.378;2024-02-23T00:05:26;21.80;31.20
82039;DHT22;71610;42.628;23.378;2024-02-23T00:07:52;21.80;31.20
82039;DHT22;71610;42.628;23.378;2024-02-23T00:10:17;21.80;32.30
82039;DHT22;71610;42.628;23.378;2024-02-23T00:12:43;21.80;31.20
82039;DHT22;71610;42.628;23.378;2024-02-23T00:15:10;21.80;31.20
82039;DHT22;71610;42.628;23.378;2024-02-23T00:17:35;21.70;31.10
82039;DHT22;71610;42.628;23.378;2024-02-23T00:20:01;21.80;31.20
82039;DHT22;71610;42.628;23.378;2024-02-23T00:22:27;21.70;31.10
82039;DHT22;71610;42.628;23.378;2024-02-23T00:24:52;21.80;31.20
82039;DHT22;71610;42.628;23.378;2024-02-23T00:27:18;21.70;31.10
82039;DHT22;71610;42.628;23.378;2024-02-23T00:29:44;21.80;31.20
82039;DHT22;71610;42.628;23.378;2024-02-23T00:32:10;21.80;31.20
82039;DHT22;71610;42.628;23.378;2024-02-23T00:34:36;21.70;31.10
82039;DHT22;71610;42.628;23.378;2024-02-23T00:37:02;21.70;31.10
82039;DHT22;71610;42.628;23.378;2024-02-23T00:39:29;21.70;31.10
82039;DHT22;71610;42.628;23.378;2024-02-23T00:41:54;21.70;31.00
82039;DHT22;71610;42.628;23.378;2024-02-23T00:44:20;21.70;31.00
82039;DHT22;71610;42.628;23.378;2024-02-23T00:46:46;21.70;31.10
82039;DHT22;71610;42.628;23.378;2024-02-23T00:49:12;21.70;31.00
82039;DHT22;71610;42.628;23.378;2024-02-23T00:51:37;21.70;31.00
82039;DHT22;71610;42.628;23.378;2024-02-23T00:54:03;21.70;31.00
82039;DHT22;71610;42.628;23.378;2024-02-23T00:56:29;21.70;31.00
82039;DHT22;71610;42.628;23.378;2024-02-23T00:58:54;21.70;31.00
82039;DHT22;71610;42.628;23.378;2024-02-23T01:01:20;21.70;31.00
82039;DHT22;71610;42.628;23.378;2024-02-23T01:03:46;21.70;31.00
82039;DHT22;71610;42.628;23.378;2024-02-23T01:06:12;21.70;31.00
82039;DHT22;71610;42.628;23.378;2024-02-23T01:08:37;21.70;31.00
82039;DHT22;71610;42.628;23.378;2024-02-23T01:11:05;21.70;31.00
82039;DHT22;71610;42.628;23.378;2024-02-23T01:13:31;21.70;31.00
82039;DHT22;71610;42.628;23.378;2024-02-23T01:15:57;21.70;30.90
82039;DHT22;71610;42.628;23.378;2024-02-23T01:18:22;21.70;30.90
82039;DHT22;71610;42.628;23.378;2024-02-23T01:20:48;21.70;31.00
82039;DHT22;71610;42.628;23.378;2024-02-23T01:23:14;21.70;30.90
82039;DHT22;71610;42.628;23.378;2024-02-23T01:25:40;21.70;31.00
82039;DHT22;71610;42.628;23.378;2024-02-23T01:28:06;21.70;30.90
82039;DHT22;71610;42.628;23.378;2024-02-23T01:30:32;21.70;30.90
82039;DHT22;71610;42.628;23.378;2024-02-23T01:32:57;21.70;30.90
82039;DHT22;71610;42.628;23.378;2024-02-23T01:35:23;21.60;30.80
82039;DHT22;71610;42.628;23.378;2024-02-23T01:37:49;21.60;30.80
82039;DHT22;71610;42.628;23.378;2024-02-23T01:40:15;21.60;30.80
82039;DHT22;71610;42.628;23.378;2024-02-23T01:42:40;21.60;30.80
82039;DHT22;71610;42.628;23.378;2024-02-23T01:45:06;21.60;30.80
82039;DHT22;71610;42.628;23.378;2024-02-23T01:47:33;21.60;30.70
82039;DHT22;71610;42.628;23.378;2024-02-23T01:49:59;21.60;30.80
82039;DHT22;71610;42.628;23.378;2024-02-23T01:52:25;21.60;30.80
82039;DHT22;71610;42.628;23.378;2024-02-23T01:54:52;21.60;30.80
82039;DHT22;71610;42.628;23.378;2024-02-23T01:57:18;21.60;30.80
82039;DHT22;71610;42.628;23.378;2024-02-23T01:59:44;21.60;30.80
82039;DHT22;71610;42.628;23.378;2024-02-23T02:02:09;21.60;30.70
82039;DHT22;71610;42.628;23.378;2024-02-23T02:04:35;21.60;30.80
82039;DHT22;71610;42.628;23.378;2024-02-23T02:07:01;21.60;31.90
82039;DHT22;71610;42.628;23.378;2024-02-23T02:09:27;21.60;30.70
82039;DHT22;71610;42.628;23.378;2024-02-23T02:11:53;21.60;30.70
82039;DHT22;71610;42.628;23.378;2024-02-23T02:14:19;21.60;30.70
82039;DHT22;71610;42.628;23.378;2024-02-23T02:16:45;21.60;30.70
82039;DHT22;71610;42.628;23.378;2024-02-23T02:19:11;21.60;30.70
82039;DHT22;71610;42.628;23.378;2024-02-23T02:21:37;21.60;30.70
82039;DHT22;71610;42.628;23.378;2024-02-23T02:24:04;21.60;30.70
82039;DHT22;71610;42.628;23.378;2024-02-23T02:26:30;21.60;30.70
82039;DHT22;71610;42.628;23.378;2024-02-23T02:28:56;21.60;30.70
82039;DHT22;71610;42.628;23.378;2024-02-23T02:31:22;21.60;30.60
82039;DHT22;71610;42.628;23.378;2024-02-23T02:33:48;21.60;30.60
82039;DHT22;71610;42.628;23.378;2024-02-23T02:36:14;21.60;30.70
82039;DHT22;71610;42.628;23.378;2024-02-23T02:38:39;21.60;30.70
82039;DHT22;71610;42.628;23.378;2024-02-23T02:41:05;21.60;30.70
82039;DHT22;71610;42.628;23.378;2024-02-23T02:43:32;21.60;30.60
82039;DHT22;71610;42.628;23.378;2024-02-23T02:45:58;21.50;30.60
82039;DHT22;71610;42.628;23.378;2024-02-23T02:48:24;21.60;30.70
82039;DHT22;71610;42.628;23.378;2024-02-23T02:50:50;21.50;30.60
82039;DHT22;71610;42.628;23.378;2024-02-23T02:53:16;21.60;30.70
82039;DHT22;71610;42.628;23.378;2024-02-23T02:55:44;21.60;30.80
82039;DHT22;71610;42.628;23.378;2024-02-23T02:58:11;21.60;30.70
82039;DHT22;71610;42.628;23.378;2024-02-23T03:00:38;21.60;30.60
82039;DHT22;71610;42.628;23.378;2024-02-23T03:03:04;21.60;30.60
82039;DHT22;71610;42.628;23.378;2024-02-23T03:05:30;21.50;30.60
82039;DHT22;71610;42.628;23.378;2024-02-23T03:07:56;21.60;30.70
82039;DHT22;71610;42.628;23.378;2024-02-23T03:10:21;21.60;30.70
82039;DHT22;71610;42.628;23.378;2024-02-23T03:12:47;21.60;30.70
82039;DHT22;71610;42.628;23.378;2024-02-23T03:15:13;21.60;30.60
82039;DHT22;71610;42.628;23.378;2024-02-23T03:17:39;21.60;30.60
82039;DHT22;71610;42.628;23.378;2024-02-23T03:20:05;21.60;30.60
82039;DHT22;71610;42.628;23.378;2024-02-23T03:22:37;21.60;30.60
82039;DHT22;71610;42.628;23.378;2024-02-23T03:25:04;21.60;30.60
82039;DHT22;71610;42.628;23.378;2024-02-23T03:27:34;21.60;30.50
82039;DHT22;71610;42.628;23.378;2024-02-23T03:30:00;21.60;30.60
82039;DHT22;71610;42.628;23.378;2024-02-23T03:32:26;21.60;30.50
82039;DHT22;71610;42.628;23.378;2024-02-23T03:34:52;21.60;30.60
82039;DHT22;71610;42.628;23.378;2024-02-23T03:37:18;21.70;30.60
82039;DHT22;71610;42.628;23.378;2024-02-23T03:39:43;21.70;30.60
82039;DHT22;71610;42.628;23.378;2024-02-23T03:42:09;21.70;30.60
82039;DHT22;71610;42.628;23.378;2024-02-23T03:44:35;21.70;30.50
82039;DHT22;71610;42.628;23.378;2024-02-23T03:47:00;21.70;30.50
82039;DHT22;71610;42.628;23.378;2024-02-23T03:49:26;21.70;30.40
82039;DHT22;71610;42.628;23.378;2024-02-23T03:51:52;21.80;30.40
82039;DHT22;71610;42.628;23.378;2024-02-23T03:54:18;21.80;30.30
82039;DHT22;71610;42.628;23.378;2024-02-23T03:56:43;21.80;30.40
82039;DHT22;71610;42.628;23.378;2024-02-23T03:59:10;21.80;30.20
82039;DHT22;71610;42.628;23.378;2024-02-23T04:01:39;21.80;30.20
82039;DHT22;71610;42.628;23.378;2024-02-23T04:04:05;21.80;30.20
82039;DHT22;71610;42.628;23.378;2024-02-23T04:06:31;21.80;30.20
82039;DHT22;71610;42.628;23.378;2024-02-23T04:08:57;21.90;30.20
82039;DHT22;71610;42.628;23.378;2024-02-23T04:11:23;21.90;30.20
82039;DHT22;71610;42.628;23.378;2024-02-23T04:13:49;21.90;30.10
82039;DHT22;71610;42.628;23.378;2024-02-23T04:16:14;21.90;30.10
82039;DHT22;71610;42.628;23.378;2024-02-23T04:18:40;21.90;30.10
82039;DHT22;71610;42.628;23.378;2024-02-23T04:21:06;21.90;30.10
82039;DHT22;71610;42.628;23.378;2024-02-23T04:23:31;21.90;30.00
82039;DHT22;71610;42.628;23.378;2024-02-23T04:25:59;21.90;30.00
82039;DHT22;71610;42.628;23.378;2024-02-23T04:28:24;21.90;30.00
82039;DHT22;71610;42.628;23.378;2024-02-23T04:30:52;21.90;31.10
82039;DHT22;71610;42.628;23.378;2024-02-23T04:33:18;21.90;30.00
82039;DHT22;71610;42.628;23.378;2024-02-23T04:35:43;22.00;30.00
82039;DHT22;71610;42.628;23.378;2024-02-23T04:38:09;22.00;30.00
82039;DHT22;71610;42.628;23.378;2024-02-23T04:40:35;22.00;30.00
82039;DHT22;71610;42.628;23.378;2024-02-23T04:43:01;22.00;30.00
82039;DHT22;71610;42.628;23.378;2024-02-23T04:45:26;22.00;30.00
82039;DHT22;71610;42.628;23.378;2024-02-23T04:47:52;22.00;29.90
82039;DHT22;71610;42.628;23.378;2024-02-23T04:50:18;22.00;29.90
82039;DHT22;71610;42.628;23.378;2024-02-23T04:52:43;22.00;29.80
82039;DHT22;71610;42.628;23.378;2024-02-23T04:55:09;22.00;29.90
82039;DHT22;71610;42.628;23.378;2024-02-23T04:57:36;22.00;30.00
82039;DHT22;71610;42.628;23.378;2024-02-23T05:00:04;22.00;30.40
82039;DHT22;71610;42.628;23.378;2024-02-23T05:02:30;22.00;32.00
82039;DHT22;71610;42.628;23.378;2024-02-23T05:05:01;22.00;31.20
82039;DHT22;71610;42.628;23.378;2024-02-23T05:07:27;22.00;30.90
82039;DHT22;71610;42.628;23.378;2024-02-23T05:09:53;22.00;30.70
82039;DHT22;71610;42.628;23.378;2024-02-23T05:12:18;22.00;30.70
82039;DHT22;71610;42.628;23.378;2024-02-23T05:14:44;22.00;30.60
82039;DHT22;71610;42.628;23.378;2024-02-23T05:17:10;22.00;30.50
82039;DHT22;71610;42.628;23.378;2024-02-23T05:19:35;22.00;30.50
82039;DHT22;71610;42.628;23.378;2024-02-23T05:22:01;22.00;30.40
82039;DHT22;71610;42.628;23.378;2024-02-23T05:24:27;22.00;30.40
82039;DHT22;71610;42.628;23.378;2024-02-23T05:26:52;22.00;30.40
82039;DHT22;71610;42.628;23.378;2024-02-23T05:29:18;22.00;30.00
82039;DHT22;71610;42.628;23.378;2024-02-23T05:31:49;22.00;29.80
82039;DHT22;71610;42.628;23.378;2024-02-23T05:34:15;22.00;29.70
82039;DHT22;71610;42.628;23.378;2024-02-23T05:36:41;22.00;29.60
82039;DHT22;71610;42.628;23.378;2024-02-23T05:39:07;22.00;29.50
82039;DHT22;71610;42.628;23.378;2024-02-23T05:41:38;22.00;29.40
82039;DHT22;71610;42.628;23.378;2024-02-23T05:44:04;22.00;29.30
82039;DHT22;71610;42.628;23.378;2024-02-23T05:46:35;22.00;29.20
82039;DHT22;71610;42.628;23.378;2024-02-23T05:49:01;22.10;29.10
82039;DHT22;71610;42.628;23.378;2024-02-23T05:51:28;22.00;28.80
82039;DHT22;71610;42.628;23.378;2024-02-23T05:53:58;22.10;28.80
82039;DHT22;71610;42.628;23.378;2024-02-23T05:56:24;22.10;28.90
82039;DHT22;71610;42.628;23.378;2024-02-23T05:58:50;22.10;28.60
82039;DHT22;71610;42.628;23.378;2024-02-23T06:01:17;22.10;28.70
82039;DHT22;71610;42.628;23.378;2024-02-23T06:03:43;22.10;28.80
82039;DHT22;71610;42.628;23.378;2024-02-23T06:06:10;22.10;28.70
82039;DHT22;71610;42.628;23.378;2024-02-23T06:08:36;22.10;28.50
82039;DHT22;71610;42.628;23.378;2024-02-23T06:11:03;22.10;28.50
82039;DHT22;71610;42.628;23.378;2024-02-23T06:13:30;22.10;28.50
82039;DHT22;71610;42.628;23.378;2024-02-23T06:15:56;22.10;28.50
82039;DHT22;71610;42.628;23.378;2024-02-23T06:18:21;22.10;28.60
82039;DHT22;71610;42.628;23.378;2024-02-23T06:20:49;22.20;28.80
82039;DHT22;71610;42.628;23.378;2024-02-23T06:23:16;22.20;29.60
82039;DHT22;71610;42.628;23.378;2024-02-23T06:25:42;22.10;28.70
82039;DHT22;71610;42.628;23.378;2024-02-23T06:28:09;22.20;28.70
82039;DHT22;71610;42.628;23.378;2024-02-23T06:30:35;22.20;28.80
82039;DHT22;71610;42.628;23.378;2024-02-23T06:33:00;22.20;29.10
82039;DHT22;71610;42.628;23.378;2024-02-23T06:35:26;22.20;29.20
82039;DHT22;71610;42.628;23.378;2024-02-23T06:37:52;22.20;29.20
82039;DHT22;71610;42.628;23.378;2024-02-23T06:40:17;22.20;29.60
82039;DHT22;71610;42.628;23.378;2024-02-23T06:42:43;22.30;29.90
82039;DHT22;71610;42.628;23.378;2024-02-23T06:45:09;22.30;30.00
82039;DHT22;71610;42.628;23.378;2024-02-23T06:47:35;22.30;29.80
82039;DHT22;71610;42.628;23.378;2024-02-23T06:50:01;22.30;30.80
82039;DHT22;71610;42.628;23.378;2024-02-23T06:52:29;22.40;30.30
82039;DHT22;71610;42.628;23.378;2024-02-23T06:54:54;22.40;31.20
82039;DHT22;71610;42.628;23.378;2024-02-23T06:57:20;22.40;31.50
82039;DHT22;71610;42.628;23.378;2024-02-23T06:59:46;22.50;31.50
82039;DHT22;71610;42.628;23.378;2024-02-23T07:02:12;22.50;31.50
82039;DHT22;71610;42.628;23.378;2024-02-23T07:04:37;22.50;31.50
82039;DHT22;71610;42.628;23.378;2024-02-23T07:07:03;22.50;31.60
82039;DHT22;71610;42.628;23.378;2024-02-23T07:09:33;22.50;31.80
82039;DHT22;71610;42.628;23.378;2024-02-23T07:11:59;22.50;32.00
82039;DHT22;71610;42.628;23.378;2024-02-23T07:14:25;22.50;32.30
82039;DHT22;71610;42.628;23.378;2024-02-23T07:16:51;22.50;32.50
82039;DHT22;71610;42.628;23.378;2024-02-23T07:19:17;22.60;32.80
82039;DHT22;71610;42.628;23.378;2024-02-23T07:21:45;22.60;33.10
82039;DHT22;71610;42.628;23.378;2024-02-23T07:24:11;22.60;32.90
82039;DHT22;71610;42.628;23.378;2024-02-23T07:26:37;22.60;32.80
82039;DHT22;71610;42.628;23.378;2024-02-23T07:29:03;22.70;32.90
82039;DHT22;71610;42.628;23.378;2024-02-23T07:31:29;22.70;33.10
82039;DHT22;71610;42.628;23.378;2024-02-23T07:33:55;22.80;33.20
82039;DHT22;71610;42.628;23.378;2024-02-23T07:36:21;22.80;33.30
82039;DHT22;71610;42.628;23.378;2024-02-23T07:38:47;22.80;33.40
82039;DHT22;71610;42.628;23.378;2024-02-23T07:41:14;22.80;33.50
82039;DHT22;71610;42.628;23.378;2024-02-23T07:43:40;22.80;33.50
82039;DHT22;71610;42.628;23.378;2024-02-23T07:46:06;22.80;33.50
82039;DHT22;71610;42.628;23.378;2024-02-23T07:48:35;22.80;33.50
82039;DHT22;71610;42.628;23.378;2024-02-23T07:51:02;22.80;33.50
82039;DHT22;71610;42.628;23.378;2024-02-23T07:53:28;22.80;33.90
82039;DHT22;71610;42.628;23.378;2024-02-23T07:55:54;22.80;34.20
82039;DHT22;71610;42.628;23.378;2024-02-23T07:58:20;22.90;34.60
82039;DHT22;71610;42.628;23.378;2024-02-23T08:00:46;22.90;34.40
82039;DHT22;71610;42.628;23.378;2024-02-23T08:03:12;22.90;34.40
82039;DHT22;71610;42.628;23.378;2024-02-23T08:05:38;22.90;34.30
82039;DHT22;71610;42.628;23.378;2024-02-23T08:08:04;22.90;34.20
82039;DHT22;71610;42.628;23.378;2024-02-23T08:10:30;22.90;34.40
82039;DHT22;71610;42.628;23.378;2024-02-23T08:12:55;22.90;34.00
82039;DHT22;71610;42.628;23.378;2024-02-23T08:15:21;22.90;33.70
82039;DHT22;71610;42.628;23.378;2024-02-23T08:17:47;22.90;33.70
82039;DHT22;71610;42.628;23.378;2024-02-23T08:20:13;22.90;33.80
82039;DHT22;71610;42.628;23.378;2024-02-23T08:22:38;22.90;33.90
82039;DHT22;71610;42.628;23.378;2024-02-23T08:25:04;22.90;34.20
82039;DHT22;71610;42.628;23.378;2024-02-23T08:27:30;23.00;34.20
82039;DHT22;71610;42.628;23.378;2024-02-23T08:29:56;22.90;34.10
82039;DHT22;71610;42.628;23.378;2024-02-23T08:32:21;22.90;34.30
82039;DHT22;71610;42.628;23.378;2024-02-23T08:34:47;22.90;34.70
82039;DHT22;71610;42.628;23.378;2024-02-23T08:37:13;23.00;34.60
82039;DHT22;71610;42.628;23.378;2024-02-23T08:39:39;23.00;34.20
82039;DHT22;71610;42.628;23.378;2024-02-23T08:42:04;23.00;33.90
82039;DHT22;71610;42.628;23.378;2024-02-23T08:44:30;23.00;33.90
82039;DHT22;71610;42.628;23.378;2024-02-23T08:46:56;23.00;34.00
82039;DHT22;71610;42.628;23.378;2024-02-23T08:49:21;23.00;33.80
82039;DHT22;71610;42.628;23.378;2024-02-23T08:51:47;23.00;33.40
82039;DHT22;71610;42.628;23.378;2024-02-23T08:54:13;23.00;32.80
82039;DHT22;71610;42.628;23.378;2024-02-23T08:56:39;23.00;32.40
82039;DHT22;71610;42.628;23.378;2024-02-23T08:59:05;23.00;33.10
82039;DHT22;71610;42.628;23.378;2024-02-23T09:01:31;23.00;32.70
82039;DHT22;71610;42.628;23.378;2024-02-23T09:03:57;22.90;31.00
82039;DHT22;71610;42.628;23.378;2024-02-23T09:06:22;22.90;30.40
82039;DHT22;71610;42.628;23.378;2024-02-23T09:08:48;22.90;30.00
82039;DHT22;71610;42.628;23.378;2024-02-23T09:11:14;22.90;29.80
82039;DHT22;71610;42.628;23.378;2024-02-23T09:13:41;22.90;29.60
82039;DHT22;71610;42.628;23.378;2024-02-23T09:16:07;23.00;29.30
82039;DHT22;71610;42.628;23.378;2024-02-23T09:18:36;22.90;28.80
82039;DHT22;71610;42.628;23.378;2024-02-23T09:21:02;22.90;28.40
82039;DHT22;71610;42.628;23.378;2024-02-23T09:23:27;22.90;28.00
82039;DHT22;71610;42.628;23.378;2024-02-23T09:25:53;22.90;27.70
82039;DHT22;71610;42.628;23.378;2024-02-23T09:28:19;22.90;27.30
82039;DHT22;71610;42.628;23.378;2024-02-23T09:30:44;22.90;27.00
82039;DHT22;71610;42.628;23.378;2024-02-23T09:33:12;22.90;26.80
82039;DHT22;71610;42.628;23.378;2024-02-23T09:35:37;22.80;26.50
82039;DHT22;71610;42.628;23.378;2024-02-23T09:38:03;22.80;26.60
82039;DHT22;71610;42.628;23.378;2024-02-23T09:40:29;22.80;27.20
82039;DHT22;71610;42.628;23.378;2024-02-23T09:42:58;22.80;27.90
82039;DHT22;71610;42.628;23.378;2024-02-23T09:45:25;22.80;28.40
82039;DHT22;71610;42.628;23.378;2024-02-23T09:47:53;22.80;28.70
82039;DHT22;71610;42.628;23.378;2024-02-23T09:50:24;22.80;28.80
82039;DHT22;71610;42.628;23.378;2024-02-23T09:52:50;22.80;28.70
82039;DHT22;71610;42.628;23.378;2024-02-23T09:55:20;22.70;28.20
82039;DHT22;71610;42.628;23.378;2024-02-23T09:57:48;22.70;28.10
82039;DHT22;71610;42.628;23.378;2024-02-23T10:00:17;22.70;28.10
82039;DHT22;71610;42.628;23.378;2024-02-23T10:02:43;22.70;27.90
82039;DHT22;71610;42.628;23.378;2024-02-23T10:05:10;22.70;27.80
82039;DHT22;71610;42.628;23.378;2024-02-23T10:07:38;22.70;27.90
82039;DHT22;71610;42.628;23.378;2024-02-23T10:10:07;22.70;28.10
82039;DHT22;71610;42.628;23.378;2024-02-23T10:12:34;22.70;28.00
82039;DHT22;71610;42.628;23.378;2024-02-23T10:15:01;22.70;28.20
82039;DHT22;71610;42.628;23.378;2024-02-23T10:17:30;22.70;28.50
82039;DHT22;71610;42.628;23.378;2024-02-23T10:19:56;22.70;29.00
82039;DHT22;71610;42.628;23.378;2024-02-23T10:22:23;22.80;29.20
82039;DHT22;71610;42.628;23.378;2024-02-23T10:24:51;22.80;29.20
82039;DHT22;71610;42.628;23.378;2024-02-23T10:27:17;22.80;29.10
82039;DHT22;71610;42.628;23.378;2024-02-23T10:29:43;22.70;28.90
82039;DHT22;71610;42.628;23.378;2024-02-23T10:32:12;22.80;28.80
82039;DHT22;71610;42.628;23.378;2024-02-23T10:34:42;22.80;28.70
82039;DHT22;71610;42.628;23.378;2024-02-23T10:37:08;22.80;28.60
82039;DHT22;71610;42.628;23.378;2024-02-23T10:39:36;22.80;28.50
82039;DHT22;71610;42.628;23.378;2024-02-23T10:42:04;22.70;28.50
82039;DHT22;71610;42.628;23.378;2024-02-23T10:44:30;22.80;28.50
82039;DHT22;71610;42.628;23.378;2024-02-23T10:46:58;22.70;28.40
82039;DHT22;71610;42.628;23.378;2024-02-23T10:49:28;22.80;28.50
82039;DHT22;71610;42.628;23.378;2024-02-23T10:51:54;22.70;28.40
82039;DHT22;71610;42.628;23.378;2024-02-23T10:54:20;22.70;28.30
82039;DHT22;71610;42.628;23.378;2024-02-23T10:56:50;22.80;28.40
82039;DHT22;71610;42.628;23.378;2024-02-23T10:59:19;22.70;28.40
82039;DHT22;71610;42.628;23.378;2024-02-23T11:01:57;22.70;28.40
82039;DHT22;71610;42.628;23.378;2024-02-23T11:04:26;22.80;28.40
82039;DHT22;71610;42.628;23.378;2024-02-23T11:06:54;22.70;28.40
82039;DHT22;71610;42.628;23.378;2024-02-23T11:09:22;22.70;28.40
82039;DHT22;71610;42.628;23.378;2024-02-23T11:11:55;22.70;28.50
82039;DHT22;71610;42.628;23.378;2024-02-23T11:16:58;22.70;29.20
82039;DHT22;71610;42.628;23.378;2024-02-23T11:19:36;22.70;29.60
82039;DHT22;71610;42.628;23.378;2024-02-23T11:22:02;22.80;29.30
82039;DHT22;71610;42.628;23.378;2024-02-23T11:24:30;22.70;29.10
82039;DHT22;71610;42.628;23.378;2024-02-23T11:26:59;22.70;28.80
82039;DHT22;71610;42.628;23.378;2024-02-23T11:29:31;22.70;28.70
82039;DHT22;71610;42.628;23.378;2024-02-23T11:31:58;22.80;28.60
82039;DHT22;71610;42.628;23.378;2024-02-23T11:34:29;22.70;28.50
82039;DHT22;71610;42.628;23.378;2024-02-23T11:36:55;22.70;28.40
82039;DHT22;71610;42.628;23.378;2024-02-23T11:39:22;22.70;28.30
82039;DHT22;71610;42.628;23.378;2024-02-23T11:41:49;22.70;28.10
82039;DHT22;71610;42.628;23.378;2024-02-23T11:44:15;22.70;28.00
82039;DHT22;71610;42.628;23.378;2024-02-23T11:46:46;22.70;28.20
82039;DHT22;71610;42.628;23.378;2024-02-23T11:49:13;22.70;28.60
82039;DHT22;71610;42.628;23.378;2024-02-23T11:51:39;22.70;28.90
82039;DHT22;71610;42.628;23.378;2024-02-23T11:54:06;22.80;29.20
82039;DHT22;71610;42.628;23.378;2024-02-23T11:56:32;22.80;29.30
82039;DHT22;71610;42.628;23.378;2024-02-23T11:58:58;22.80;29.40
82039;DHT22;71610;42.628;23.378;2024-02-23T12:01:23;22.80;29.40
82039;DHT22;71610;42.628;23.378;2024-02-23T12:03:49;22.70;29.40
82039;DHT22;71610;42.628;23.378;2024-02-23T12:06:15;22.80;29.60
82039;DHT22;71610;42.628;23.378;2024-02-23T12:08:42;22.80;29.80
82039;DHT22;71610;42.628;23.378;2024-02-23T12:11:09;22.80;29.90
82039;DHT22;71610;42.628;23.378;2024-02-23T12:13:38;22.80;30.00
82039;DHT22;71610;42.628;23.378;2024-02-23T12:16:07;22.80;30.10
82039;DHT22;71610;42.628;23.378;2024-02-23T12:18:33;22.80;30.30
82039;DHT22;71610;42.628;23.378;2024-02-23T12:21:05;22.70;30.50
82039;DHT22;71610;42.628;23.378;2024-02-23T12:23:58;22.80;30.80
82039;DHT22;71610;42.628;23.378;2024-02-23T12:26:23;22.80;31.00
82039;DHT22;71610;42.628;23.378;2024-02-23T12:28:49;22.70;31.10
82039;DHT22;71610;42.628;23.378;2024-02-23T12:31:15;22.70;31.40
82039;DHT22;71610;42.628;23.378;2024-02-23T12:33:41;22.70;31.40
82039;DHT22;71610;42.628;23.378;2024-02-23T12:36:08;22.70;31.50
82039;DHT22;71610;42.628;23.378;2024-02-23T12:38:34;22.70;31.60
82039;DHT22;71610;42.628;23.378;2024-02-23T12:41:01;22.70;32.40
82039;DHT22;71610;42.628;23.378;2024-02-23T12:43:28;22.70;31.80
82039;DHT22;71610;42.628;23.378;2024-02-23T12:45:55;22.80;32.00
82039;DHT22;71610;42.628;23.378;2024-02-23T12:48:21;22.70;32.00
82039;DHT22;71610;42.628;23.378;2024-02-23T12:50:48;22.80;32.10
82039;DHT22;71610;42.628;23.378;2024-02-23T12:53:36;22.80;32.20
82039;DHT22;71610;42.628;23.378;2024-02-23T12:58:30;22.70;32.40
82039;DHT22;71610;42.628;23.378;2024-02-23T13:00:56;22.80;32.60
82039;DHT22;71610;42.628;23.378;2024-02-23T13:03:24;22.70;32.70
82039;DHT22;71610;42.628;23.378;2024-02-23T13:05:51;22.70;32.80
82039;DHT22;71610;42.628;23.378;2024-02-23T13:08:16;22.70;32.90
82039;DHT22;71610;42.628;23.378;2024-02-23T13:10:43;22.70;32.90
82039;DHT22;71610;42.628;23.378;2024-02-23T13:13:09;22.80;33.20
82039;DHT22;71610;42.628;23.378;2024-02-23T13:15:35;22.70;33.90
82039;DHT22;71610;42.628;23.378;2024-02-23T13:18:03;22.80;34.40
82039;DHT22;71610;42.628;23.378;2024-02-23T13:20:29;22.70;35.10
82039;DHT22;71610;42.628;23.378;2024-02-23T13:22:55;22.80;35.80
82039;DHT22;71610;42.628;23.378;2024-02-23T13:25:21;22.80;36.00
82039;DHT22;71610;42.628;23.378;2024-02-23T13:27:47;22.80;36.30
82039;DHT22;71610;42.628;23.378;2024-02-23T13:30:13;22.80;36.00
82039;DHT22;71610;42.628;23.378;2024-02-23T13:32:39;22.80;36.30
82039;DHT22;71610;42.628;23.378;2024-02-23T13:35:05;22.80;36.60
82039;DHT22;71610;42.628;23.378;2024-02-23T13:37:32;22.80;36.80
82039;DHT22;71610;42.628;23.378;2024-02-23T13:39:57;22.90;37.00
82039;DHT22;71610;42.628;23.378;2024-02-23T13:42:23;22.90;37.10
82039;DHT22;71610;42.628;23.378;2024-02-23T13:44:49;22.90;37.00
82039;DHT22;71610;42.628;23.378;2024-02-23T13:47:15;22.90;37.20
82039;DHT22;71610;42.628;23.378;2024-02-23T13:49:41;23.00;37.30
82039;DHT22;71610;42.628;23.378;2024-02-23T13:52:06;23.00;38.50
82039;DHT22;71610;42.628;23.378;2024-02-23T13:54:32;23.00;37.40
82039;DHT22;71610;42.628;23.378;2024-02-23T13:56:58;23.00;37.60
82039;DHT22;71610;42.628;23.378;2024-02-23T13:59:24;23.10;37.80
82039;DHT22;71610;42.628;23.378;2024-02-23T14:01:50;23.10;37.80
82039;DHT22;71610;42.628;23.378;2024-02-23T14:04:16;23.10;37.40
82039;DHT22;71610;42.628;23.378;2024-02-23T14:06:42;23.10;37.20
82039;DHT22;71610;42.628;23.378;2024-02-23T14:09:09;23.10;37.10
82039;DHT22;71610;42.628;23.378;2024-02-23T14:11:35;23.10;37.00
82039;DHT22;71610;42.628;23.378;2024-02-23T14:14:01;23.00;37.00
82039;DHT22;71610;42.628;23.378;2024-02-23T14:16:28;23.00;36.90
82039;DHT22;71610;42.628;23.378;2024-02-23T14:18:54;23.00;36.90
82039;DHT22;71610;42.628;23.378;2024-02-23T14:21:20;23.00;36.80
82039;DHT22;71610;42.628;23.378;2024-02-23T14:23:48;23.00;36.70
82039;DHT22;71610;42.628;23.378;2024-02-23T14:26:14;23.00;36.80
82039;DHT22;71610;42.628;23.378;2024-02-23T14:28:39;23.00;36.70
82039;DHT22;71610;42.628;23.378;2024-02-23T14:31:06;23.00;36.60
82039;DHT22;71610;42.628;23.378;2024-02-23T14:33:32;23.00;37.70
82039;DHT22;71610;42.628;23.378;2024-02-23T14:35:58;22.90;36.50
82039;DHT22;71610;42.628;23.378;2024-02-23T14:38:23;22.90;36.40
82039;DHT22;71610;42.628;23.378;2024-02-23T14:40:49;22.90;36.40
82039;DHT22;71610;42.628;23.378;2024-02-23T14:43:15;22.90;36.40
82039;DHT22;71610;42.628;23.378;2024-02-23T14:45:41;22.90;36.30
82039;DHT22;71610;42.628;23.378;2024-02-23T14:48:07;22.90;36.30
82039;DHT22;71610;42.628;23.378;2024-02-23T14:50:33;22.90;36.20
82039;DHT22;71610;42.628;23.378;2024-02-23T14:52:59;22.90;36.20
82039;DHT22;71610;42.628;23.378;2024-02-23T14:55:25;22.90;36.10
82039;DHT22;71610;42.628;23.378;2024-02-23T14:57:51;22.90;36.10
82039;DHT22;71610;42.628;23.378;2024-02-23T15:00:17;22.90;36.10
82039;DHT22;71610;42.628;23.378;2024-02-23T15:02:43;22.90;36.00
82039;DHT22;71610;42.628;23.378;2024-02-23T15:05:09;22.90;36.00
82039;DHT22;71610;42.628;23.378;2024-02-23T15:07:35;22.90;36.00
82039;DHT22;71610;42.628;23.378;2024-02-23T15:10:04;22.90;36.00
82039;DHT22;71610;42.628;23.378;2024-02-23T15:12:34;22.90;37.00
82039;DHT22;71610;42.628;23.378;2024-02-23T15:14:59;22.90;35.90